sensor_id;sensor_type;location;lat;lon;timestamp;P1;durP1;ratioP1;P2;durP2;ratioP2
19879;SDS011;10102;50.828;4.416;2023-03-01T00:01:23;16.05;;;8.45;;
19879;SDS011;10102;50.828;4.416;2023-03-01T00:03:53;13.43;;;9.57;;
19879;SDS011;10102;50.828;4.416;2023-03-01T00:06:20;12.90;;;8.50;;
19879;SDS011;10102;50.828;4.416;2023-03-01T00:08:46;17.80;;;9.88;;
19879;SDS011;10102;50.828;4.416;2023-03-01T00:13:42;14.23;;;9.98;;
19879;SDS011;10102;50.828;4.416;2023-03-01T00:16:10;15.77;;;9.23;;
19879;SDS011;10102;50.828;4.416;2023-03-01T00:18:38;13.80;;;9.27;;
19879;SDS011;10102;50.828;4.416;2023-03-01T00:21:04;19.50;;;9.55;;
19879;SDS011;10102;50.828;4.416;2023-03-01T00:23:31;14.73;;;9.70;;
19879;SDS011;10102;50.828;4.416;2023-03-01T00:25:58;18.27;;;8.80;;
19879;SDS011;10102;50.828;4.416;2023-03-01T00:28:24;14.15;;;9.15;;
19879;SDS011;10102;50.828;4.416;2023-03-01T00:30:49;12.35;;;9.05;;
19879;SDS011;10102;50.828;4.416;2023-03-01T00:33:15;14.23;;;9.05;;
19879;SDS011;10102;50.828;4.416;2023-03-01T00:35:41;14.65;;;9.85;;
19879;SDS011;10102;50.828;4.416;2023-03-01T00:38:07;15.82;;;8.73;;
19879;SDS011;10102;50.828;4.416;2023-03-01T00:40:33;18.25;;;9.88;;
19879;SDS011;10102;50.828;4.416;2023-03-01T00:43:00;14.30;;;9.20;;
19879;SDS011;10102;50.828;4.416;2023-03-01T00:45:27;14.93;;;8.35;;
19879;SDS011;10102;50.828;4.416;2023-03-01T00:47:53;13.88;;;9.15;;
19879;SDS011;10102;50.828;4.416;2023-03-01T00:50:19;14.20;;;8.80;;
19879;SDS011;10102;50.828;4.416;2023-03-01T00:52:45;16.17;;;9.43;;
19879;SDS011;10102;50.828;4.416;2023-03-01T00:55:11;12.80;;;8.95;;
19879;SDS011;10102;50.828;4.416;2023-03-01T00:57:37;10.50;;;8.40;;
19879;SDS011;10102;50.828;4.416;2023-03-01T01:00:04;13.27;;;8.45;;
19879;SDS011;10102;50.828;4.416;2023-03-01T01:02:34;12.60;;;9.05;;
19879;SDS011;10102;50.828;4.416;2023-03-01T01:05:00;14.43;;;8.95;;
19879;SDS011;10102;50.828;4.416;2023-03-01T01:07:26;11.73;;;8.52;;
19879;SDS011;10102;50.828;4.416;2023-03-01T01:09:52;16.10;;;10.60;;
19879;SDS011;10102;50.828;4.416;2023-03-01T01:12:17;16.33;;;8.93;;
19879;SDS011;10102;50.828;4.416;2023-03-01T01:14:43;15.23;;;8.80;;
19879;SDS011;10102;50.828;4.416;2023-03-01T01:17:09;15.00;;;8.68;;
19879;SDS011;10102;50.828;4.416;2023-03-01T01:19:34;13.65;;;8.73;;
19879;SDS011;10102;50.828;4.416;2023-03-01T01:22:00;13.77;;;8.30;;
19879;SDS011;10102;50.828;4.416;2023-03-01T01:24:26;14.07;;;9.05;;
19879;SDS011;10102;50.828;4.416;2023-03-01T01:26:52;11.25;;;8.18;;
19879;SDS011;10102;50.828;4.416;2023-03-01T01:29:17;11.32;;;8.50;;
19879;SDS011;10102;50.828;4.416;2023-03-01T01:31:43;14.00;;;8.35;;
19879;SDS011;10102;50.828;4.416;2023-03-01T01:34:13;14.13;;;8.63;;
19879;SDS011;10102;50.828;4.416;2023-03-01T01:36:41;16.63;;;8.77;;
19879;SDS011;10102;50.828;4.416;2023-03-01T01:39:06;14.20;;;8.50;;
19879;SDS011;10102;50.828;4.416;2023-03-01T01:41:32;14.77;;;8.70;;
19879;SDS011;10102;50.828;4.416;2023-03-01T01:44:20;14.38;;;8.60;;
19879;SDS011;10102;50.828;4.416;2023-03-01T01:47:02;23.30;;;8.87;;
19879;SDS011;10102;50.828;4.416;2023-03-01T01:49:50;14.38;;;8.82;;
19879;SDS011;10102;50.828;4.416;2023-03-01T01:52:20;14.98;;;8.63;;
19879;SDS011;10102;50.828;4.416;2023-03-01T01:54:54;16.70;;;9.07;;
19879;SDS011;10102;50.828;4.416;2023-03-01T01:57:30;11.60;;;8.05;;
19879;SDS011;10102;50.828;4.416;2023-03-01T02:00:09;11.63;;;8.50;;
19879;SDS011;10102;50.828;4.416;2023-03-01T02:02:46;13.10;;;8.83;;
19879;SDS011;10102;50.828;4.416;2023-03-01T02:08:12;12.37;;;7.87;;
19879;SDS011;10102;50.828;4.416;2023-03-01T02:10:40;11.70;;;8.57;;
19879;SDS011;10102;50.828;4.416;2023-03-01T02:13:06;13.40;;;8.43;;
19879;SDS011;10102;50.828;4.416;2023-03-01T02:15:33;10.40;;;7.67;;
19879;SDS011;10102;50.828;4.416;2023-03-01T02:17:59;14.03;;;9.30;;
19879;SDS011;10102;50.828;4.416;2023-03-01T02:20:29;13.03;;;8.90;;
19879;SDS011;10102;50.828;4.416;2023-03-01T02:23:01;10.83;;;7.83;;
19879;SDS011;10102;50.828;4.416;2023-03-01T02:30:39;11.93;;;7.60;;
19879;SDS011;10102;50.828;4.416;2023-03-01T02:33:26;15.77;;;9.17;;
19879;SDS011;10102;50.828;4.416;2023-03-01T02:35:53;16.23;;;8.87;;
19879;SDS011;10102;50.828;4.416;2023-03-01T02:38:20;12.27;;;7.83;;
19879;SDS011;10102;50.828;4.416;2023-03-01T02:40:47;15.80;;;8.77;;
19879;SDS011;10102;50.828;4.416;2023-03-01T02:43:16;13.37;;;9.10;;
19879;SDS011;10102;50.828;4.416;2023-03-01T02:45:51;14.83;;;8.67;;
19879;SDS011;10102;50.828;4.416;2023-03-01T02:48:18;13.77;;;8.50;;
19879;SDS011;10102;50.828;4.416;2023-03-01T02:53:33;13.37;;;9.00;;
19879;SDS011;10102;50.828;4.416;2023-03-01T02:56:06;11.10;;;8.20;;
19879;SDS011;10102;50.828;4.416;2023-03-01T02:58:39;13.33;;;8.80;;
19879;SDS011;10102;50.828;4.416;2023-03-01T03:01:10;15.23;;;9.07;;
19879;SDS011;10102;50.828;4.416;2023-03-01T03:03:36;13.43;;;8.43;;
19879;SDS011;10102;50.828;4.416;2023-03-01T03:06:02;15.93;;;9.20;;
19879;SDS011;10102;50.828;4.416;2023-03-01T03:08:28;14.37;;;9.33;;
19879;SDS011;10102;50.828;4.416;2023-03-01T03:10:54;14.13;;;9.07;;
19879;SDS011;10102;50.828;4.416;2023-03-01T03:13:21;14.57;;;8.10;;
19879;SDS011;10102;50.828;4.416;2023-03-01T03:15:47;14.33;;;8.60;;
19879;SDS011;10102;50.828;4.416;2023-03-01T03:18:14;11.50;;;8.07;;
19879;SDS011;10102;50.828;4.416;2023-03-01T03:20:41;17.97;;;8.90;;
19879;SDS011;10102;50.828;4.416;2023-03-01T03:23:08;12.10;;;8.40;;
19879;SDS011;10102;50.828;4.416;2023-03-01T03:25:34;14.30;;;8.83;;
19879;SDS011;10102;50.828;4.416;2023-03-01T03:28:02;14.77;;;9.33;;
19879;SDS011;10102;50.828;4.416;2023-03-01T03:30:34;14.00;;;8.40;;
19879;SDS011;10102;50.828;4.416;2023-03-01T03:33:04;12.57;;;8.43;;
19879;SDS011;10102;50.828;4.416;2023-03-01T03:35:32;14.30;;;8.67;;
19879;SDS011;10102;50.828;4.416;2023-03-01T03:38:13;15.53;;;8.73;;
19879;SDS011;10102;50.828;4.416;2023-03-01T03:40:44;14.10;;;8.90;;
19879;SDS011;10102;50.828;4.416;2023-03-01T03:43:18;13.93;;;8.73;;
19879;SDS011;10102;50.828;4.416;2023-03-01T03:45:46;14.80;;;8.97;;
19879;SDS011;10102;50.828;4.416;2023-03-01T03:48:13;14.73;;;8.97;;
19879;SDS011;10102;50.828;4.416;2023-03-01T03:50:39;17.30;;;8.67;;
19879;SDS011;10102;50.828;4.416;2023-03-01T03:53:10;13.07;;;8.90;;
19879;SDS011;10102;50.828;4.416;2023-03-01T03:55:36;19.50;;;8.70;;
19879;SDS011;10102;50.828;4.416;2023-03-01T03:58:04;12.30;;;8.47;;
19879;SDS011;10102;50.828;4.416;2023-03-01T04:00:32;12.33;;;8.63;;
19879;SDS011;10102;50.828;4.416;2023-03-01T04:03:00;13.73;;;9.20;;
19879;SDS011;10102;50.828;4.416;2023-03-01T04:05:26;15.53;;;9.00;;
19879;SDS011;10102;50.828;4.416;2023-03-01T04:07:52;14.73;;;8.63;;
19879;SDS011;10102;50.828;4.416;2023-03-01T04:10:26;10.53;;;8.20;;
19879;SDS011;10102;50.828;4.416;2023-03-01T04:12:56;13.40;;;8.50;;
19879;SDS011;10102;50.828;4.416;2023-03-01T04:15:23;12.77;;;9.03;;
19879;SDS011;10102;50.828;4.416;2023-03-01T04:17:50;13.03;;;9.30;;
19879;SDS011;10102;50.828;4.416;2023-03-01T04:20:24;13.23;;;8.40;;
19879;SDS011;10102;50.828;4.416;2023-03-01T04:25:24;12.23;;;8.63;;
19879;SDS011;10102;50.828;4.416;2023-03-01T04:27:50;13.17;;;8.40;;
19879;SDS011;10102;50.828;4.416;2023-03-01T04:30:16;12.87;;;9.10;;
19879;SDS011;10102;50.828;4.416;2023-03-01T04:32:42;15.77;;;9.60;;
19879;SDS011;10102;50.828;4.416;2023-03-01T04:35:08;15.40;;;9.83;;
19879;SDS011;10102;50.828;4.416;2023-03-01T04:37:34;14.47;;;8.50;;
19879;SDS011;10102;50.828;4.416;2023-03-01T04:40:01;15.07;;;8.90;;
19879;SDS011;10102;50.828;4.416;2023-03-01T04:42:37;20.03;;;8.83;;
19879;SDS011;10102;50.828;4.416;2023-03-01T04:45:03;14.47;;;8.77;;
19879;SDS011;10102;50.828;4.416;2023-03-01T04:47:38;14.70;;;9.03;;
19879;SDS011;10102;50.828;4.416;2023-03-01T04:50:04;16.30;;;9.27;;
19879;SDS011;10102;50.828;4.416;2023-03-01T04:52:31;15.90;;;8.43;;
19879;SDS011;10102;50.828;4.416;2023-03-01T04:54:57;17.90;;;9.33;;
19879;SDS011;10102;50.828;4.416;2023-03-01T04:57:22;12.13;;;8.70;;
19879;SDS011;10102;50.828;4.416;2023-03-01T04:59:48;13.90;;;9.50;;
19879;SDS011;10102;50.828;4.416;2023-03-01T05:02:13;14.20;;;9.00;;
19879;SDS011;10102;50.828;4.416;2023-03-01T05:04:42;13.73;;;9.23;;
19879;SDS011;10102;50.828;4.416;2023-03-01T05:07:08;15.43;;;8.40;;
19879;SDS011;10102;50.828;4.416;2023-03-01T05:09:33;14.47;;;9.03;;
19879;SDS011;10102;50.828;4.416;2023-03-01T05:11:59;15.33;;;8.63;;
19879;SDS011;10102;50.828;4.416;2023-03-01T05:14:25;15.13;;;9.67;;
19879;SDS011;10102;50.828;4.416;2023-03-01T05:16:51;16.23;;;9.23;;
19879;SDS011;10102;50.828;4.416;2023-03-01T05:19:16;14.47;;;8.60;;
19879;SDS011;10102;50.828;4.416;2023-03-01T05:21:47;13.20;;;8.93;;
19879;SDS011;10102;50.828;4.416;2023-03-01T05:24:32;16.63;;;9.33;;
19879;SDS011;10102;50.828;4.416;2023-03-01T05:27:00;13.03;;;8.57;;
19879;SDS011;10102;50.828;4.416;2023-03-01T05:29:26;14.53;;;9.23;;
19879;SDS011;10102;50.828;4.416;2023-03-01T05:31:54;14.57;;;9.13;;
19879;SDS011;10102;50.828;4.416;2023-03-01T05:34:30;13.53;;;8.83;;
19879;SDS011;10102;50.828;4.416;2023-03-01T05:36:58;15.40;;;10.23;;
19879;SDS011;10102;50.828;4.416;2023-03-01T05:39:26;14.40;;;9.37;;
19879;SDS011;10102;50.828;4.416;2023-03-01T05:41:54;16.30;;;9.00;;
19879;SDS011;10102;50.828;4.416;2023-03-01T05:44:21;13.23;;;8.20;;
19879;SDS011;10102;50.828;4.416;2023-03-01T05:46:48;11.47;;;7.97;;
19879;SDS011;10102;50.828;4.416;2023-03-01T05:49:14;17.93;;;9.67;;
19879;SDS011;10102;50.828;4.416;2023-03-01T05:51:41;12.17;;;8.77;;
19879;SDS011;10102;50.828;4.416;2023-03-01T05:54:08;14.87;;;9.17;;
19879;SDS011;10102;50.828;4.416;2023-03-01T05:56:35;16.77;;;8.70;;
19879;SDS011;10102;50.828;4.416;2023-03-01T05:59:02;15.87;;;9.87;;
19879;SDS011;10102;50.828;4.416;2023-03-01T06:01:30;12.87;;;9.37;;
19879;SDS011;10102;50.828;4.416;2023-03-01T06:04:00;14.40;;;9.17;;
19879;SDS011;10102;50.828;4.416;2023-03-01T06:06:26;14.70;;;9.57;;
19879;SDS011;10102;50.828;4.416;2023-03-01T06:08:52;13.07;;;8.90;;
19879;SDS011;10102;50.828;4.416;2023-03-01T06:11:18;13.30;;;9.33;;
19879;SDS011;10102;50.828;4.416;2023-03-01T06:13:44;14.40;;;10.03;;
19879;SDS011;10102;50.828;4.416;2023-03-01T06:16:11;17.87;;;9.40;;
19879;SDS011;10102;50.828;4.416;2023-03-01T06:18:37;17.50;;;9.27;;
19879;SDS011;10102;50.828;4.416;2023-03-01T06:21:03;16.67;;;10.13;;
19879;SDS011;10102;50.828;4.416;2023-03-01T06:23:29;15.83;;;9.33;;
19879;SDS011;10102;50.828;4.416;2023-03-01T06:25:55;15.17;;;9.23;;
19879;SDS011;10102;50.828;4.416;2023-03-01T06:28:21;15.67;;;9.23;;
19879;SDS011;10102;50.828;4.416;2023-03-01T06:30:49;14.63;;;9.47;;
19879;SDS011;10102;50.828;4.416;2023-03-01T06:33:18;14.73;;;9.20;;
19879;SDS011;10102;50.828;4.416;2023-03-01T06:35:45;21.03;;;10.00;;
19879;SDS011;10102;50.828;4.416;2023-03-01T06:38:12;16.00;;;9.83;;
19879;SDS011;10102;50.828;4.416;2023-03-01T06:40:40;13.60;;;9.47;;
19879;SDS011;10102;50.828;4.416;2023-03-01T06:43:06;16.73;;;9.77;;
19879;SDS011;10102;50.828;4.416;2023-03-01T06:45:32;13.70;;;9.40;;
19879;SDS011;10102;50.828;4.416;2023-03-01T06:48:02;13.13;;;9.23;;
19879;SDS011;10102;50.828;4.416;2023-03-01T06:50:29;16.43;;;9.43;;
19879;SDS011;10102;50.828;4.416;2023-03-01T06:52:56;18.93;;;9.83;;
19879;SDS011;10102;50.828;4.416;2023-03-01T06:55:32;17.53;;;8.83;;
19879;SDS011;10102;50.828;4.416;2023-03-01T06:57:58;14.37;;;8.93;;
19879;SDS011;10102;50.828;4.416;2023-03-01T07:00:25;13.07;;;9.33;;
19879;SDS011;10102;50.828;4.416;2023-03-01T07:02:51;16.60;;;9.37;;
19879;SDS011;10102;50.828;4.416;2023-03-01T07:05:19;18.93;;;10.23;;
19879;SDS011;10102;50.828;4.416;2023-03-01T07:07:45;15.47;;;9.63;;
19879;SDS011;10102;50.828;4.416;2023-03-01T07:10:13;18.47;;;10.23;;
19879;SDS011;10102;50.828;4.416;2023-03-01T07:12:39;18.23;;;9.63;;
19879;SDS011;10102;50.828;4.416;2023-03-01T07:15:08;17.57;;;9.43;;
19879;SDS011;10102;50.828;4.416;2023-03-01T07:17:36;14.17;;;9.17;;
19879;SDS011;10102;50.828;4.416;2023-03-01T07:20:01;16.67;;;9.90;;
19879;SDS011;10102;50.828;4.416;2023-03-01T07:22:27;19.60;;;9.97;;
19879;SDS011;10102;50.828;4.416;2023-03-01T07:24:54;22.03;;;9.97;;
19879;SDS011;10102;50.828;4.416;2023-03-01T07:27:20;14.27;;;9.17;;
19879;SDS011;10102;50.828;4.416;2023-03-01T07:29:51;13.53;;;9.33;;
19879;SDS011;10102;50.828;4.416;2023-03-01T07:32:17;13.50;;;9.23;;
19879;SDS011;10102;50.828;4.416;2023-03-01T07:34:43;17.63;;;9.60;;
19879;SDS011;10102;50.828;4.416;2023-03-01T07:37:08;15.90;;;10.20;;
19879;SDS011;10102;50.828;4.416;2023-03-01T07:39:36;24.05;;;11.40;;
19879;SDS011;10102;50.828;4.416;2023-03-01T07:42:01;18.47;;;9.90;;
19879;SDS011;10102;50.828;4.416;2023-03-01T07:44:27;16.83;;;9.47;;
19879;SDS011;10102;50.828;4.416;2023-03-01T07:46:53;14.03;;;9.57;;
19879;SDS011;10102;50.828;4.416;2023-03-01T07:49:21;17.83;;;9.47;;
19879;SDS011;10102;50.828;4.416;2023-03-01T07:51:47;15.97;;;9.73;;
19879;SDS011;10102;50.828;4.416;2023-03-01T07:54:13;16.60;;;9.93;;
19879;SDS011;10102;50.828;4.416;2023-03-01T07:56:39;14.33;;;9.20;;
19879;SDS011;10102;50.828;4.416;2023-03-01T07:59:05;15.77;;;9.47;;
19879;SDS011;10102;50.828;4.416;2023-03-01T08:01:31;15.50;;;9.60;;
19879;SDS011;10102;50.828;4.416;2023-03-01T08:03:58;14.13;;;9.47;;
19879;SDS011;10102;50.828;4.416;2023-03-01T08:06:24;15.70;;;9.40;;
19879;SDS011;10102;50.828;4.416;2023-03-01T08:08:50;18.33;;;9.40;;
19879;SDS011;10102;50.828;4.416;2023-03-01T08:11:16;18.77;;;9.93;;
19879;SDS011;10102;50.828;4.416;2023-03-01T08:13:42;14.57;;;9.37;;
19879;SDS011;10102;50.828;4.416;2023-03-01T08:16:12;18.93;;;9.87;;
19879;SDS011;10102;50.828;4.416;2023-03-01T08:18:39;14.33;;;9.37;;
19879;SDS011;10102;50.828;4.416;2023-03-01T08:21:09;15.10;;;9.27;;
19879;SDS011;10102;50.828;4.416;2023-03-01T08:23:36;15.27;;;9.77;;
19879;SDS011;10102;50.828;4.416;2023-03-01T08:26:03;18.13;;;9.53;;
19879;SDS011;10102;50.828;4.416;2023-03-01T08:28:31;16.97;;;9.77;;
19879;SDS011;10102;50.828;4.416;2023-03-01T08:30:57;16.13;;;10.13;;
19879;SDS011;10102;50.828;4.416;2023-03-01T08:33:23;15.00;;;9.70;;
19879;SDS011;10102;50.828;4.416;2023-03-01T08:35:48;17.03;;;10.10;;
19879;SDS011;10102;50.828;4.416;2023-03-01T08:38:14;15.97;;;10.77;;
19879;SDS011;10102;50.828;4.416;2023-03-01T08:40:40;18.53;;;10.50;;
19879;SDS011;10102;50.828;4.416;2023-03-01T08:43:05;18.23;;;10.13;;
19879;SDS011;10102;50.828;4.416;2023-03-01T08:45:31;12.87;;;9.43;;
19879;SDS011;10102;50.828;4.416;2023-03-01T08:47:56;18.40;;;10.90;;
19879;SDS011;10102;50.828;4.416;2023-03-01T08:50:23;15.60;;;10.20;;
19879;SDS011;10102;50.828;4.416;2023-03-01T08:52:49;15.80;;;10.50;;
19879;SDS011;10102;50.828;4.416;2023-03-01T08:55:15;15.33;;;9.87;;
19879;SDS011;10102;50.828;4.416;2023-03-01T08:57:42;20.27;;;10.93;;
19879;SDS011;10102;50.828;4.416;2023-03-01T09:00:08;14.80;;;10.32;;
19879;SDS011;10102;50.828;4.416;2023-03-01T09:02:36;15.75;;;9.65;;
19879;SDS011;10102;50.828;4.416;2023-03-01T09:05:02;17.47;;;9.87;;
19879;SDS011;10102;50.828;4.416;2023-03-01T09:07:28;26.98;;;10.20;;
19879;SDS011;10102;50.828;4.416;2023-03-01T09:09:54;19.98;;;10.38;;
19879;SDS011;10102;50.828;4.416;2023-03-01T09:12:20;13.35;;;9.48;;
19879;SDS011;10102;50.828;4.416;2023-03-01T09:14:46;18.83;;;10.10;;
19879;SDS011;10102;50.828;4.416;2023-03-01T09:17:11;16.27;;;9.80;;
19879;SDS011;10102;50.828;4.416;2023-03-01T09:19:37;16.13;;;10.13;;
19879;SDS011;10102;50.828;4.416;2023-03-01T09:22:06;18.02;;;10.82;;
19879;SDS011;10102;50.828;4.416;2023-03-01T09:24:31;12.65;;;9.57;;
19879;SDS011;10102;50.828;4.416;2023-03-01T09:30:20;17.20;;;10.43;;
19879;SDS011;10102;50.828;4.416;2023-03-01T09:32:46;16.67;;;9.82;;
19879;SDS011;10102;50.828;4.416;2023-03-01T09:35:12;16.70;;;9.63;;
19879;SDS011;10102;50.828;4.416;2023-03-01T09:37:38;20.65;;;10.48;;
19879;SDS011;10102;50.828;4.416;2023-03-01T09:40:28;18.60;;;10.48;;
19879;SDS011;10102;50.828;4.416;2023-03-01T09:45:34;23.05;;;10.95;;
19879;SDS011;10102;50.828;4.416;2023-03-01T09:48:06;21.17;;;11.07;;
19879;SDS011;10102;50.828;4.416;2023-03-01T09:50:41;16.77;;;10.55;;
19879;SDS011;10102;50.828;4.416;2023-03-01T09:53:13;22.05;;;11.32;;
19879;SDS011;10102;50.828;4.416;2023-03-01T09:55:55;18.55;;;12.35;;
19879;SDS011;10102;50.828;4.416;2023-03-01T10:09:51;19.70;;;11.75;;
19879;SDS011;10102;50.828;4.416;2023-03-01T10:12:18;18.48;;;11.18;;
19879;SDS011;10102;50.828;4.416;2023-03-01T10:20:19;19.02;;;11.60;;
19879;SDS011;10102;50.828;4.416;2023-03-01T10:22:50;20.70;;;11.80;;
19879;SDS011;10102;50.828;4.416;2023-03-01T10:25:42;18.33;;;10.27;;
19879;SDS011;10102;50.828;4.416;2023-03-01T10:28:47;18.85;;;10.20;;
19879;SDS011;10102;50.828;4.416;2023-03-01T10:31:22;19.05;;;12.38;;
19879;SDS011;10102;50.828;4.416;2023-03-01T10:33:54;17.40;;;11.82;;
19879;SDS011;10102;50.828;4.416;2023-03-01T10:36:24;17.13;;;10.13;;
19879;SDS011;10102;50.828;4.416;2023-03-01T10:38:51;18.73;;;11.07;;
19879;SDS011;10102;50.828;4.416;2023-03-01T10:41:22;20.73;;;10.00;;
19879;SDS011;10102;50.828;4.416;2023-03-01T10:43:49;17.23;;;10.88;;
19879;SDS011;10102;50.828;4.416;2023-03-01T10:46:28;18.42;;;10.85;;
19879;SDS011;10102;50.828;4.416;2023-03-01T10:49:19;14.82;;;10.07;;
19879;SDS011;10102;50.828;4.416;2023-03-01T10:51:50;16.00;;;10.57;;
19879;SDS011;10102;50.828;4.416;2023-03-01T10:54:26;13.93;;;10.43;;
19879;SDS011;10102;50.828;4.416;2023-03-01T10:56:58;21.75;;;13.30;;
19879;SDS011;10102;50.828;4.416;2023-03-01T11:03:01;15.00;;;11.50;;
19879;SDS011;10102;50.828;4.416;2023-03-01T11:04:59;14.73;;;9.43;;
19879;SDS011;10102;50.828;4.416;2023-03-01T11:07:25;13.93;;;10.50;;
19879;SDS011;10102;50.828;4.416;2023-03-01T11:09:51;15.07;;;9.77;;
19879;SDS011;10102;50.828;4.416;2023-03-01T11:12:16;12.50;;;10.10;;
19879;SDS011;10102;50.828;4.416;2023-03-01T11:14:48;15.88;;;10.10;;
19879;SDS011;10102;50.828;4.416;2023-03-01T11:17:23;13.25;;;10.65;;
19879;SDS011;10102;50.828;4.416;2023-03-01T11:22:43;14.80;;;10.55;;
19879;SDS011;10102;50.828;4.416;2023-03-01T11:25:25;13.40;;;9.65;;
19879;SDS011;10102;50.828;4.416;2023-03-01T11:27:54;13.77;;;9.57;;
19879;SDS011;10102;50.828;4.416;2023-03-01T11:36:07;11.95;;;9.43;;
19879;SDS011;10102;50.828;4.416;2023-03-01T11:38:52;11.18;;;9.30;;
19879;SDS011;10102;50.828;4.416;2023-03-01T11:41:25;12.25;;;9.65;;
19879;SDS011;10102;50.828;4.416;2023-03-01T12:05:50;10.23;;;9.13;;
19879;SDS011;10102;50.828;4.416;2023-03-01T12:08:20;10.10;;;9.05;;
19879;SDS011;10102;50.828;4.416;2023-03-01T12:13:55;11.80;;;8.88;;
19879;SDS011;10102;50.828;4.416;2023-03-01T12:19:19;12.40;;;9.02;;
19879;SDS011;10102;50.828;4.416;2023-03-01T12:32:19;11.57;;;9.00;;
19879;SDS011;10102;50.828;4.416;2023-03-01T12:40:59;8.73;;;7.55;;
19879;SDS011;10102;50.828;4.416;2023-03-01T12:47:35;12.82;;;7.82;;
19879;SDS011;10102;50.828;4.416;2023-03-01T12:49:42;11.52;;;8.90;;
19879;SDS011;10102;50.828;4.416;2023-03-01T12:52:44;13.57;;;8.05;;
19879;SDS011;10102;50.828;4.416;2023-03-01T12:55:19;9.55;;;7.97;;
19879;SDS011;10102;50.828;4.416;2023-03-01T13:05:36;14.00;;;8.18;;
19879;SDS011;10102;50.828;4.416;2023-03-01T13:08:24;12.32;;;8.55;;
19879;SDS011;10102;50.828;4.416;2023-03-01T13:11:11;12.90;;;8.77;;
19879;SDS011;10102;50.828;4.416;2023-03-01T13:13:45;11.65;;;9.80;;
19879;SDS011;10102;50.828;4.416;2023-03-01T13:16:21;13.43;;;8.70;;
19879;SDS011;10102;50.828;4.416;2023-03-01T13:19:05;11.20;;;8.32;;
19879;SDS011;10102;50.828;4.416;2023-03-01T13:21:54;12.82;;;9.25;;
19879;SDS011;10102;50.828;4.416;2023-03-01T13:24:37;13.90;;;8.45;;
19879;SDS011;10102;50.828;4.416;2023-03-01T13:29:50;11.90;;;8.50;;
19879;SDS011;10102;50.828;4.416;2023-03-01T13:32:36;12.40;;;9.05;;
19879;SDS011;10102;50.828;4.416;2023-03-01T13:37:40;15.27;;;9.10;;
19879;SDS011;10102;50.828;4.416;2023-03-01T13:45:48;13.30;;;8.48;;
19879;SDS011;10102;50.828;4.416;2023-03-01T13:51:10;14.55;;;8.90;;
19879;SDS011;10102;50.828;4.416;2023-03-01T13:53:39;14.02;;;9.30;;
19879;SDS011;10102;50.828;4.416;2023-03-01T13:56:10;11.02;;;8.30;;
19879;SDS011;10102;50.828;4.416;2023-03-01T13:58:50;11.05;;;8.25;;
19879;SDS011;10102;50.828;4.416;2023-03-01T14:03:50;13.40;;;9.05;;
19879;SDS011;10102;50.828;4.416;2023-03-01T14:06:17;13.40;;;8.25;;
19879;SDS011;10102;50.828;4.416;2023-03-01T14:08:47;12.73;;;8.60;;
19879;SDS011;10102;50.828;4.416;2023-03-01T14:19:28;11.70;;;8.20;;
19879;SDS011;10102;50.828;4.416;2023-03-01T14:21:59;14.18;;;7.95;;
19879;SDS011;10102;50.828;4.416;2023-03-01T14:24:47;18.02;;;8.98;;
19879;SDS011;10102;50.828;4.416;2023-03-01T14:27:17;11.02;;;8.57;;
19879;SDS011;10102;50.828;4.416;2023-03-01T14:29:44;15.73;;;9.13;;
19879;SDS011;10102;50.828;4.416;2023-03-01T14:32:21;13.70;;;8.55;;
19879;SDS011;10102;50.828;4.416;2023-03-01T14:34:49;14.63;;;8.52;;
19879;SDS011;10102;50.828;4.416;2023-03-01T14:37:29;12.70;;;8.75;;
19879;SDS011;10102;50.828;4.416;2023-03-01T14:39:57;15.68;;;9.05;;
19879;SDS011;10102;50.828;4.416;2023-03-01T14:42:26;12.73;;;8.45;;
19879;SDS011;10102;50.828;4.416;2023-03-01T14:44:58;11.98;;;8.18;;
19879;SDS011;10102;50.828;4.416;2023-03-01T14:49:58;12.50;;;8.38;;
19879;SDS011;10102;50.828;4.416;2023-03-01T14:52:36;13.45;;;8.45;;
19879;SDS011;10102;50.828;4.416;2023-03-01T14:55:15;15.10;;;7.93;;
19879;SDS011;10102;50.828;4.416;2023-03-01T14:57:49;11.38;;;7.85;;
19879;SDS011;10102;50.828;4.416;2023-03-01T15:00:37;14.75;;;8.90;;
19879;SDS011;10102;50.828;4.416;2023-03-01T15:03:13;15.38;;;8.70;;
19879;SDS011;10102;50.828;4.416;2023-03-01T15:05:46;15.38;;;9.30;;
19879;SDS011;10102;50.828;4.416;2023-03-01T15:08:16;14.20;;;8.52;;
19879;SDS011;10102;50.828;4.416;2023-03-01T15:10:56;13.93;;;8.40;;
19879;SDS011;10102;50.828;4.416;2023-03-01T15:13:26;14.45;;;8.38;;
19879;SDS011;10102;50.828;4.416;2023-03-01T15:16:09;13.82;;;8.63;;
19879;SDS011;10102;50.828;4.416;2023-03-01T15:18:37;19.20;;;9.00;;
19879;SDS011;10102;50.828;4.416;2023-03-01T15:21:18;14.43;;;9.07;;
19879;SDS011;10102;50.828;4.416;2023-03-01T15:24:48;15.50;;;8.50;;
19879;SDS011;10102;50.828;4.416;2023-03-01T15:26:57;15.38;;;8.85;;
19879;SDS011;10102;50.828;4.416;2023-03-01T15:29:30;15.05;;;9.75;;
19879;SDS011;10102;50.828;4.416;2023-03-01T15:32:02;12.55;;;8.68;;
19879;SDS011;10102;50.828;4.416;2023-03-01T15:37:04;12.40;;;8.60;;
19879;SDS011;10102;50.828;4.416;2023-03-01T15:39:43;13.95;;;9.30;;
19879;SDS011;10102;50.828;4.416;2023-03-01T15:47:43;17.33;;;8.75;;
19879;SDS011;10102;50.828;4.416;2023-03-01T15:50:17;14.02;;;8.90;;
19879;SDS011;10102;50.828;4.416;2023-03-01T15:52:48;15.45;;;8.60;;
19879;SDS011;10102;50.828;4.416;2023-03-01T15:55:16;11.55;;;8.73;;
19879;SDS011;10102;50.828;4.416;2023-03-01T15:57:47;11.07;;;8.00;;
19879;SDS011;10102;50.828;4.416;2023-03-01T16:00:13;14.50;;;9.07;;
19879;SDS011;10102;50.828;4.416;2023-03-01T16:02:41;12.20;;;8.27;;
19879;SDS011;10102;50.828;4.416;2023-03-01T16:05:12;14.27;;;8.20;;
19879;SDS011;10102;50.828;4.416;2023-03-01T16:07:40;12.02;;;8.30;;
19879;SDS011;10102;50.828;4.416;2023-03-01T16:10:06;12.45;;;8.43;;
19879;SDS011;10102;50.828;4.416;2023-03-01T16:12:32;17.55;;;9.00;;
19879;SDS011;10102;50.828;4.416;2023-03-01T16:14:58;14.57;;;8.85;;
19879;SDS011;10102;50.828;4.416;2023-03-01T16:17:23;14.82;;;8.80;;
19879;SDS011;10102;50.828;4.416;2023-03-01T16:19:49;11.40;;;8.35;;
19879;SDS011;10102;50.828;4.416;2023-03-01T16:22:15;10.73;;;7.80;;
19879;SDS011;10102;50.828;4.416;2023-03-01T16:24:41;12.57;;;8.43;;
19879;SDS011;10102;50.828;4.416;2023-03-01T16:27:07;11.95;;;7.20;;
19879;SDS011;10102;50.828;4.416;2023-03-01T16:29:33;15.80;;;7.18;;
19879;SDS011;10102;50.828;4.416;2023-03-01T16:32:02;16.23;;;8.73;;
19879;SDS011;10102;50.828;4.416;2023-03-01T16:34:28;12.10;;;8.05;;
19879;SDS011;10102;50.828;4.416;2023-03-01T16:36:53;11.30;;;7.25;;
19879;SDS011;10102;50.828;4.416;2023-03-01T16:39:19;15.45;;;7.50;;
19879;SDS011;10102;50.828;4.416;2023-03-01T16:41:45;11.70;;;7.35;;
19879;SDS011;10102;50.828;4.416;2023-03-01T16:44:10;13.73;;;8.05;;
19879;SDS011;10102;50.828;4.416;2023-03-01T16:46:36;14.10;;;8.00;;
19879;SDS011;10102;50.828;4.416;2023-03-01T16:49:02;15.98;;;7.50;;
19879;SDS011;10102;50.828;4.416;2023-03-01T16:51:28;14.73;;;7.45;;
19879;SDS011;10102;50.828;4.416;2023-03-01T16:53:55;9.02;;;6.65;;
19879;SDS011;10102;50.828;4.416;2023-03-01T16:56:21;11.27;;;7.18;;
19879;SDS011;10102;50.828;4.416;2023-03-01T16:58:46;11.60;;;7.32;;
19879;SDS011;10102;50.828;4.416;2023-03-01T17:03:42;14.27;;;7.50;;
19879;SDS011;10102;50.828;4.416;2023-03-01T17:06:10;12.80;;;7.70;;
19879;SDS011;10102;50.828;4.416;2023-03-01T17:08:38;16.08;;;7.28;;
19879;SDS011;10102;50.828;4.416;2023-03-01T17:11:09;12.48;;;7.15;;